Startpagina
METAR-TAF:

METAR-TAF

Vliegvelden :

Luchthaven Larnaca

Larnaca, Cyprus

breedte: 34-53N, lengte: 033-38E, hoogte: 2 m

Actueel weer

Dit bericht is 20 minuten geleden gemaakt, om 03:00 UTC
Wind 4 kt uit het noordwesten
Temperatuur 9°C
Vochtigheid 87%
Druk 1017 hPa
Zicht 10 km of meer
Weinig wolken op 4000 ft

METAR: LCLK 290300Z 31004KT 9999 FEW040 09/07 Q1017 NOSIG

Tijdstip: 05:20 (03:20 UTC)

Verwachting

Dit bericht is 3 uur en het 50 minuten geleden gemaakt, om 23:30 UTC
Verwachting geldig van 29 om 00 UTC tot 29 om 24 UTC
Wind 6 kt uit het noordnoordwesten
Zicht 10 km of meer
Verspreide wolken op 3000 ft
Wijzigt naar
van 29 om 10 UTC tot 29 om 12 UTC
Wind 12 kt uit het zuiden

TAF: LCLK 282330Z 2900/2924 33006KT 9999 SCT030 BECMG 2910/2912 19012KT

Waarnemingen en weersverwachtingen van meer dan 4000 vliegvelden (METAR en TAF).

De beschikbare stations zijn de gele en rode punten op de kaart.

Ga met uw muis naar het station om de naam te zien.

Klik dan om waarnemingen en weersverwachtingen te zien.

kaart wijzigen: klik op de groene knoppen met een zwart kruis om in te zoomen, op de groene knop met een streepje om uit te zoomen of op de groene pijlen voor aangrenzende kaarten.


METAR-TAF: